Grande Prairie Airport
CYQU : now visible

Airfield :











YOU CAN JOIN US ON...

 
LOGIN :

Register | Disclaimer

   EN    FR    IT 

 









Legend :    VFR   Marginal VFR   IFR   Intensive IFR   Very Intensive IFR
Visi :
Ceiling :
>= 8 km
>= 3000ft
5 to 8 km
1000 to 3000 ft
1500m to 5 km
500 to 1000 ft
800 to 1500m
200 to 500 ft
< 800m
< 200 ft
Symbols :   Thunderstorms  Fog  Heavy snow  Heavy precipitations  Wind > 20 kt






- Airport Elevation : 2195 ft
- IATA code : YQU


CYQU - Grande Prairie

CURRENT METAR :
  • 290400Z VRB02KT 25SM BKN060 13/04 A2975 RMK SC7 SLP088 DENSITY ALT 2700FT

EXPIRED METARs :
  • 290300Z 13004KT 25SM BKN060 14/03 A2975 RMK SC7 SLP090 DENSITY ALT 2800FT
  • 290200Z 11007KT 25SM BKN060 15/02 A2976 RMK SC7 SLP094 DENSITY ALT 2900FT
  • 290100Z 09007KT 030V100 25SM BKN060 15/01 A2977 RMK SC7 SLP098 DENSITY ALT 2900FT
  • 290000Z 13005KT 090V160 25SM BKN060 BKN120 16/01 A2979 RMK SC5AC2 SLP105 DENSITY ALT 3000FT

TAF TAF CYQU
Valid from the 29 at 01:00 until the 29 at 13:00 UTC


290040Z 2901/2913 VRB03KT P6SM BKN060 OVC100
TEMPO 2901/2902 P6SM -SHRA
FM290200 32008KT P6SM -SHRA OVC040
FM290800 27006KT P6SM -SHRA FEW012 OVC030 RMK NXT FCST BY 290700Z
CZEG FIR / North America



MET'MAP, your aeronautical weather chart ! - Copyright ORBIFLY December 2007 - Disclaimer

ORBIFLY MET'MAP TEAM :

Programming & Development : Alexandra Zaïnal
Original concept : Baudouin d'Aumeries
Technical & hardware support : Manuel Goepfert
Assistance : Marc-Olivier Méhu




SOURCES & CREDITS :

   NOAA       Earth
Advisory